Time;durP1;ratioP1;P1;durP2;ratioP2;P2;SDS_P1;SDS_P2;PMS_P1;PMS_P2;Temp;Humidity;BMP_temperature;BMP_pressure;BME280_temperature;BME280_humidity;BME280_pressure;Samples;Min_cycle;Max_cycle;Signal;HPM_P1;HPM_P2
2021/05/06 00:33:18;;;;;;;1.00;0.80;;;6.80;99.90;;;;;;6239852;28;20224;-73
2021/05/06 00:36:19;;;;;;;6.30;1.27;;;6.80;99.90;;;;;;6259653;28;20219;-73
2021/05/06 00:39:32;;;;;;;1.63;0.60;;;6.90;99.90;;;;;;6259719;28;20793;-73
2021/05/06 00:43:11;;;;;;;1.10;0.70;;;6.80;99.90;;;;;;6254834;28;20227;-73
2021/05/06 01:06:00;;;;;;;1.27;0.73;;;6.60;99.90;;;;;;6231217;28;20224;-73
2021/05/06 01:09:09;;;;;;;1.03;0.80;;;6.50;99.90;;;;;;6232614;28;20230;-73
2021/05/06 01:12:11;;;;;;;1.90;0.77;;;6.50;99.90;;;;;;6234964;28;20227;-73
2021/05/06 01:15:15;;;;;;;1.40;1.13;;;6.50;99.90;;;;;;6235554;28;20244;-73
2021/05/06 01:18:17;;;;;;;1.90;0.80;;;6.50;99.90;;;;;;6251527;28;20260;-72
2021/05/06 01:21:20;;;;;;;1.07;0.90;;;6.40;99.90;;;;;;6221412;28;20211;-73
2021/05/06 01:24:24;;;;;;;1.40;1.00;;;6.40;99.90;;;;;;6235562;28;20358;-72
2021/05/06 01:28:15;;;;;;;0.87;0.80;;;6.40;99.90;;;;;;6234918;28;20350;-73
2021/05/06 01:31:13;;;;;;;2.50;1.10;;;6.40;99.90;;;;;;6225030;28;20238;-73
2021/05/06 01:34:21;;;;;;;1.90;0.80;;;6.40;99.90;;;;;;6235664;28;20236;-73
2021/05/06 01:37:46;;;;;;;1.53;1.03;;;6.40;99.90;;;;;;6235064;28;20604;-73
2021/05/06 01:47:46;;;;;;;0.70;0.60;;;6.30;99.90;;;;;;6233912;28;20239;-73
2021/05/06 02:01:03;;;;;;;1.33;0.70;;;6.20;99.90;;;;;;6258224;28;20333;-73
2021/05/06 02:04:05;;;;;;;2.37;0.90;;;6.20;99.90;;;;;;6259991;28;20280;-73
2021/05/06 02:07:08;;;;;;;1.93;0.60;;;6.10;99.90;;;;;;6258091;28;20317;-73
2021/05/06 02:10:25;;;;;;;1.87;0.70;;;6.10;99.90;;;;;;6239401;28;20590;-73
2021/05/06 02:13:33;;;;;;;1.17;0.80;;;6.00;99.90;;;;;;6234169;28;20224;-74
2021/05/06 02:16:39;;;;;;;2.57;0.80;;;5.90;99.90;;;;;;6233552;28;20738;-73
2021/05/06 02:19:47;;;;;;;1.37;1.00;;;5.90;99.90;;;;;;6243917;28;20219;-73
2021/05/06 02:22:51;;;;;;;1.00;0.90;;;5.90;99.90;;;;;;6256733;28;20232;-73
2021/05/06 02:25:53;;;;;;;2.00;0.77;;;6.00;99.90;;;;;;6259848;28;20230;-73
2021/05/06 02:28:55;;;;;;;2.73;1.07;;;6.10;99.90;;;;;;6259253;28;20710;-72
2021/05/06 02:31:57;;;;;;;4.73;1.30;;;6.20;99.90;;;;;;6256740;28;20257;-73
2021/05/06 02:34:59;;;;;;;2.90;1.30;;;6.30;99.90;;;;;;6258773;28;20241;-73
2021/05/06 02:38:01;;;;;;;1.47;0.80;;;6.30;99.90;;;;;;6249410;28;20428;-73
2021/05/06 02:41:04;;;;;;;1.30;0.97;;;6.30;99.90;;;;;;6234572;28;20577;-73
2021/05/06 02:44:06;;;;;;;2.23;0.90;;;6.30;99.90;;;;;;6233034;28;20334;-73
2021/05/06 02:47:09;;;;;;;1.00;0.90;;;6.30;99.90;;;;;;6248528;28;20234;-72
2021/05/06 02:50:14;;;;;;;1.63;1.00;;;6.30;99.90;;;;;;6233857;28;20755;-72
2021/05/06 02:53:19;;;;;;;3.40;0.97;;;6.20;99.90;;;;;;6233883;28;20314;-73
2021/05/06 03:05:48;;;;;;;1.53;0.97;;;6.30;99.90;;;;;;6232030;28;20232;-73
2021/05/06 03:08:56;;;;;;;3.50;1.10;;;6.30;99.90;;;;;;6227213;28;20307;-73
2021/05/06 03:24:57;;;;;;;1.63;1.00;;;6.10;99.90;;;;;;6208103;28;20781;-73
2021/05/06 03:28:12;;;;;;;1.33;0.77;;;6.00;99.90;;;;;;6223757;28;20824;-72
2021/05/06 03:45:10;;;;;;;1.97;0.80;;;5.90;99.90;;;;;;6133851;28;20241;-73
2021/05/06 04:15:28;;;;;;;1.10;1.00;;;5.90;99.90;;;;;;6231976;28;20235;-73
2021/05/06 04:18:35;;;;;;;3.10;0.60;;;5.90;99.90;;;;;;6247929;28;20318;-73
2021/05/06 04:37:50;;;;;;;2.23;1.00;;;5.80;99.90;;;;;;6255943;28;20713;-73
2021/05/06 04:41:11;;;;;;;0.93;0.67;;;5.90;99.90;;;;;;6254969;28;20237;-73
2021/05/06 04:54:02;;;;;;;0.80;0.80;;;6.10;99.90;;;;;;6254265;28;20638;-73
2021/05/06 05:06:42;;;;;;;1.10;0.70;;;6.40;99.90;;;;;;6231091;28;20297;-73
2021/05/06 05:26:08;;;;;;;1.60;0.80;;;7.10;99.90;;;;;;6254730;28;20254;-73
2021/05/06 05:29:10;;;;;;;1.73;0.70;;;7.20;99.90;;;;;;6254391;28;20768;-73
2021/05/06 05:32:12;;;;;;;0.77;0.70;;;7.40;99.90;;;;;;6253225;28;20722;-73
2021/05/06 05:38:43;;;;;;;0.70;0.70;;;7.60;99.90;;;;;;6254886;28;20318;-73
2021/05/06 05:45:17;;;;;;;0.57;0.57;;;7.70;99.90;;;;;;6253460;28;20665;-73
2021/05/06 05:57:35;;;;;;;3.10;0.80;;;8.10;99.90;;;;;;6257656;28;20318;-73
2021/05/06 06:00:37;;;;;;;1.20;0.50;;;8.20;99.90;;;;;;6259579;28;20364;-73
2021/05/06 06:03:39;;;;;;;0.80;0.60;;;8.30;99.90;;;;;;6259250;28;20231;-73
2021/05/06 06:06:40;;;;;;;0.87;0.50;;;8.30;99.90;;;;;;6257851;28;20705;-73
2021/05/06 06:09:43;;;;;;;1.23;0.80;;;8.40;99.90;;;;;;6247281;28;20240;-73
2021/05/06 06:12:45;;;;;;;1.03;0.70;;;8.50;99.90;;;;;;6234704;28;20259;-73
2021/05/06 06:16:00;;;;;;;0.60;0.50;;;8.60;99.90;;;;;;6234868;28;20374;-73
2021/05/06 06:19:03;;;;;;;1.03;0.73;;;8.80;99.90;;;;;;6237435;28;20701;-73
2021/05/06 06:22:09;;;;;;;0.43;0.43;;;8.90;99.90;;;;;;6259723;28;20230;-73
2021/05/06 06:25:12;;;;;;;0.40;0.40;;;9.00;99.90;;;;;;6259795;28;20349;-73
2021/05/06 06:28:13;;;;;;;0.83;0.50;;;9.10;99.90;;;;;;6259208;28;20261;-73
2021/05/06 06:31:27;;;;;;;0.80;0.60;;;9.30;99.90;;;;;;6257666;28;20245;-73
2021/05/06 06:34:29;;;;;;;0.60;0.60;;;9.40;99.90;;;;;;6256538;28;20237;-73
2021/05/06 06:37:32;;;;;;;2.10;0.60;;;9.50;99.90;;;;;;6258577;28;20234;-73
2021/05/06 06:40:34;;;;;;;0.60;0.50;;;9.60;99.90;;;;;;6239782;28;20230;-73
2021/05/06 06:43:39;;;;;;;0.80;0.50;;;9.70;99.90;;;;;;6236930;28;20228;-73
2021/05/06 06:46:42;;;;;;;0.93;0.73;;;9.80;99.90;;;;;;6253604;28;20699;-73
2021/05/06 06:49:44;;;;;;;1.60;0.77;;;9.90;99.90;;;;;;6244620;28;20228;-74
2021/05/06 06:52:46;;;;;;;0.60;0.60;;;10.00;99.90;;;;;;6258193;28;20335;-74
2021/05/06 06:55:49;;;;;;;2.60;0.70;;;10.00;99.90;;;;;;6256647;28;20267;-73
2021/05/06 06:59:03;;;;;;;1.13;0.80;;;10.10;99.90;;;;;;6258853;28;20311;-73
2021/05/06 07:02:04;;;;;;;2.87;0.90;;;10.20;99.00;;;;;;6259977;28;20286;-73
2021/05/06 07:05:09;;;;;;;1.53;0.80;;;10.20;98.50;;;;;;6256888;28;20717;-73
2021/05/06 07:08:24;;;;;;;0.80;0.70;;;10.30;97.50;;;;;;6255196;28;20242;-74
2021/05/06 07:11:26;;;;;;;1.20;0.60;;;10.40;96.20;;;;;;6234428;28;20243;-74
2021/05/06 07:14:30;;;;;;;2.60;1.00;;;10.50;97.60;;;;;;6233425;28;20226;-74
2021/05/06 07:17:46;;;;;;;1.57;0.70;;;10.60;97.00;;;;;;6231636;28;20753;-74
2021/05/06 07:20:49;;;;;;;1.47;0.63;;;10.80;95.60;;;;;;6251605;28;20230;-74
2021/05/06 07:23:55;;;;;;;2.37;0.60;;;10.90;94.20;;;;;;6239842;28;20317;-73
2021/05/06 07:27:01;;;;;;;2.03;0.60;;;11.00;93.20;;;;;;6259340;28;20241;-73
2021/05/06 07:30:06;;;;;;;1.47;0.63;;;11.20;92.50;;;;;;6257298;28;20230;-73
2021/05/06 07:33:11;;;;;;;1.17;0.80;;;11.40;92.20;;;;;;6240637;28;20226;-73
2021/05/06 07:36:17;;;;;;;1.47;0.67;;;11.50;91.90;;;;;;6257593;28;20687;-73
2021/05/06 07:39:22;;;;;;;1.77;0.70;;;11.60;91.40;;;;;;6258392;28;20696;-74
2021/05/06 07:42:26;;;;;;;1.37;0.90;;;11.60;90.30;;;;;;6258492;28;20223;-73
2021/05/06 07:45:31;;;;;;;1.20;0.80;;;11.70;90.20;;;;;;6257137;28;20715;-73
2021/05/06 07:48:35;;;;;;;1.17;0.60;;;11.70;87.90;;;;;;6256664;28;20310;-74
2021/05/06 07:51:40;;;;;;;1.10;0.50;;;11.80;86.90;;;;;;6208975;28;20233;-73
2021/05/06 07:54:46;;;;;;;1.40;0.97;;;11.80;88.10;;;;;;6207695;28;20237;-74
2021/05/06 07:57:48;;;;;;;1.50;0.67;;;11.70;82.70;;;;;;6206975;28;20241;-73
2021/05/06 08:00:50;;;;;;;1.57;0.60;;;11.70;84.20;;;;;;6239639;28;20234;-73
2021/05/06 08:03:53;;;;;;;2.00;0.87;;;11.70;85.60;;;;;;6230397;28;20240;-74
2021/05/06 08:06:54;;;;;;;1.63;0.70;;;11.70;82.00;;;;;;6233120;28;20720;-73
2021/05/06 08:09:57;;;;;;;2.00;0.60;;;11.80;81.60;;;;;;6231402;28;20227;-73
2021/05/06 08:13:02;;;;;;;2.83;1.00;;;11.80;81.00;;;;;;6232802;28;20649;-73
2021/05/06 08:16:04;;;;;;;1.40;0.80;;;11.80;80.90;;;;;;6239554;28;20239;-73
2021/05/06 08:19:06;;;;;;;2.33;1.00;;;12.00;78.60;;;;;;6237078;28;20227;-73
2021/05/06 08:22:09;;;;;;;0.90;0.60;;;12.20;79.90;;;;;;6256620;28;20235;-73
2021/05/06 08:25:13;;;;;;;3.10;1.00;;;12.40;78.70;;;;;;6253985;28;20648;-73
2021/05/06 08:28:15;;;;;;;1.80;0.73;;;12.60;75.70;;;;;;6254868;28;20273;-72
2021/05/06 08:31:17;;;;;;;1.27;0.90;;;12.70;76.70;;;;;;6235545;28;20625;-73
2021/05/06 08:34:19;;;;;;;1.37;0.73;;;12.80;75.10;;;;;;6230692;28;20600;-73
2021/05/06 08:37:21;;;;;;;1.43;0.80;;;12.80;72.20;;;;;;6231935;28;20270;-73
2021/05/06 08:40:24;;;;;;;2.00;0.70;;;12.90;71.20;;;;;;6232374;28;20232;-73
2021/05/06 08:43:31;;;;;;;1.97;0.90;;;13.00;70.10;;;;;;6229379;28;20237;-73
2021/05/06 08:46:35;;;;;;;1.63;0.53;;;13.20;71.30;;;;;;6245733;28;20270;-73
2021/05/06 08:49:38;;;;;;;1.33;0.80;;;13.40;69.50;;;;;;6253380;28;20647;-73
2021/05/06 08:52:41;;;;;;;1.47;1.03;;;13.60;68.60;;;;;;6255883;28;20238;-74
2021/05/06 08:55:43;;;;;;;2.97;1.03;;;13.70;67.30;;;;;;6255255;28;20241;-73
2021/05/06 08:58:47;;;;;;;1.37;0.67;;;13.70;64.40;;;;;;6258756;28;20287;-73
2021/05/06 09:01:51;;;;;;;4.20;1.17;;;13.90;63.80;;;;;;6241655;28;20324;-73
2021/05/06 09:04:53;;;;;;;3.87;1.20;;;14.10;65.30;;;;;;6259782;28;20293;-73
2021/05/06 09:07:55;;;;;;;0.80;0.63;;;14.30;64.20;;;;;;6261009;28;20334;-73
2021/05/06 09:10:58;;;;;;;2.57;0.83;;;14.50;64.50;;;;;;6238121;28;20265;-73
2021/05/06 09:14:02;;;;;;;1.63;0.90;;;14.60;61.40;;;;;;6236174;28;20781;-73
2021/05/06 09:17:23;;;;;;;1.70;0.90;;;14.80;63.60;;;;;;6229232;28;20234;-73
2021/05/06 09:20:26;;;;;;;2.10;0.80;;;14.80;64.70;;;;;;6243697;28;20226;-73
2021/05/06 09:23:28;;;;;;;2.30;0.97;;;14.80;61.30;;;;;;6255407;28;20230;-73
2021/05/06 09:26:30;;;;;;;1.47;0.93;;;14.80;62.70;;;;;;6255249;28;20323;-74
2021/05/06 09:29:35;;;;;;;1.20;0.90;;;14.90;62.70;;;;;;6253838;28;20352;-73
2021/05/06 09:32:37;;;;;;;1.27;0.80;;;15.00;61.50;;;;;;6259975;28;20246;-74
2021/05/06 09:40:48;;;;;;;0.83;0.80;;;15.00;59.40;;;;;;6213390;28;20220;-74
2021/05/06 09:43:50;;;;;;;1.43;1.00;;;15.60;58.10;;;;;;6229114;28;20600;-73
2021/05/06 09:47:16;;;;;;;2.53;0.80;;;16.10;56.60;;;;;;6218967;28;20224;-73
2021/05/06 09:50:26;;;;;;;1.53;0.80;;;16.70;57.20;;;;;;6211578;28;20216;-73
2021/05/06 09:53:32;;;;;;;2.07;0.93;;;16.90;56.30;;;;;;6209315;28;20367;-74
2021/05/06 09:56:35;;;;;;;2.47;0.90;;;16.90;56.00;;;;;;6197696;28;20366;-73
2021/05/06 09:59:39;;;;;;;2.43;0.87;;;16.50;54.70;;;;;;6234049;28;20311;-73
2021/05/06 10:02:41;;;;;;;1.90;0.90;;;16.30;55.70;;;;;;6228188;28;20252;-73
2021/05/06 10:05:50;;;;;;;1.87;0.90;;;16.00;54.90;;;;;;6233881;28;20232;-73
2021/05/06 10:09:03;;;;;;;1.73;0.80;;;15.80;57.50;;;;;;6234081;28;20262;-73
2021/05/06 10:12:05;;;;;;;3.07;1.20;;;15.90;58.20;;;;;;6233537;28;20318;-74
2021/05/06 10:15:10;;;;;;;1.67;0.90;;;15.80;57.30;;;;;;6233978;28;20227;-73
2021/05/06 10:18:11;;;;;;;2.00;1.00;;;15.80;57.30;;;;;;6233825;28;20683;-73
2021/05/06 10:21:17;;;;;;;2.03;0.90;;;15.80;56.50;;;;;;6246414;28;20227;-73
2021/05/06 10:24:19;;;;;;;1.67;1.10;;;15.90;57.70;;;;;;6240563;28;20253;-73
2021/05/06 10:27:26;;;;;;;1.13;0.80;;;16.00;57.70;;;;;;6230818;28;20222;-73
2021/05/06 10:30:28;;;;;;;1.87;0.90;;;16.20;58.40;;;;;;6233559;28;20358;-74
2021/05/06 10:33:31;;;;;;;2.00;1.07;;;16.40;58.00;;;;;;6233379;28;20705;-73
2021/05/06 10:36:34;;;;;;;1.10;0.80;;;16.90;59.20;;;;;;6215493;28;20243;-73
2021/05/06 10:39:49;;;;;;;1.73;0.60;;;17.60;57.60;;;;;;6232700;28;20358;-73
2021/05/06 10:42:53;;;;;;;2.80;1.00;;;18.40;57.30;;;;;;6231932;28;20814;-73
2021/05/06 10:46:13;;;;;;;1.47;0.80;;;18.90;55.40;;;;;;6215282;28;20266;-74
2021/05/06 10:49:15;;;;;;;0.63;0.63;;;18.70;54.30;;;;;;6215021;28;20597;-74
2021/05/06 10:52:17;;;;;;;3.07;0.93;;;18.30;52.80;;;;;;6232566;28;20243;-74
2021/05/06 10:55:47;;;;;;;0.90;0.80;;;18.00;53.80;;;;;;6230935;28;20838;-74
2021/05/06 10:58:48;;;;;;;1.00;0.90;;;17.90;54.30;;;;;;6232784;28;20237;-73
2021/05/06 11:01:51;;;;;;;1.50;0.70;;;17.90;54.20;;;;;;6230924;28;20552;-73
2021/05/06 11:05:10;;;;;;;1.70;0.63;;;17.70;53.10;;;;;;6232563;28;20235;-73
2021/05/06 11:08:18;;;;;;;0.87;0.70;;;17.60;54.10;;;;;;6233881;28;20319;-74
2021/05/06 11:11:20;;;;;;;1.77;0.90;;;17.50;55.40;;;;;;6232700;28;20228;-73
2021/05/06 11:14:22;;;;;;;0.50;0.50;;;17.50;53.80;;;;;;6233227;28;20233;-73
2021/05/06 11:17:37;;;;;;;1.17;0.70;;;17.40;53.70;;;;;;6214549;28;20234;-73
2021/05/06 11:20:42;;;;;;;1.00;0.60;;;17.50;54.50;;;;;;6213561;28;20652;-74
2021/05/06 11:23:52;;;;;;;1.47;0.90;;;17.90;53.90;;;;;;6214891;28;20366;-74
2021/05/06 11:27:00;;;;;;;1.20;0.73;;;18.10;51.60;;;;;;6232109;28;20220;-73
2021/05/06 11:30:31;;;;;;;1.90;0.60;;;18.50;52.70;;;;;;6230385;28;20351;-73
2021/05/06 11:33:33;;;;;;;2.00;0.77;;;19.10;52.20;;;;;;6190030;28;20256;-73
2021/05/06 11:36:34;;;;;;;2.20;0.80;;;19.30;50.90;;;;;;6207235;28;20259;-74
2021/05/06 11:39:53;;;;;;;1.13;0.60;;;19.30;50.50;;;;;;6202769;28;20593;-74
2021/05/06 11:42:56;;;;;;;3.33;1.00;;;19.00;50.10;;;;;;6213942;28;20289;-73
2021/05/06 11:46:04;;;;;;;1.27;0.60;;;19.00;49.80;;;;;;6231098;28;20238;-73
2021/05/06 11:49:13;;;;;;;0.97;0.70;;;18.80;48.80;;;;;;6213511;28;21191;-73
2021/05/06 11:52:32;;;;;;;0.63;0.50;;;18.60;49.90;;;;;;6232709;28;20713;-73
2021/05/06 11:55:41;;;;;;;2.63;0.60;;;18.70;50.70;;;;;;6237233;28;20254;-73
2021/05/06 11:58:43;;;;;;;1.97;0.60;;;18.80;50.90;;;;;;6255180;28;20595;-74
2021/05/06 12:01:48;;;;;;;2.03;0.83;;;18.50;51.50;;;;;;6255180;28;20238;-75
2021/05/06 12:04:55;;;;;;;1.20;0.70;;;18.00;51.20;;;;;;6237841;28;20234;-73
2021/05/06 12:08:06;;;;;;;1.50;0.80;;;17.50;51.90;;;;;;6238653;28;20322;-72
2021/05/06 12:11:09;;;;;;;0.97;0.70;;;17.20;52.70;;;;;;6255974;28;20242;-74
2021/05/06 12:14:11;;;;;;;1.07;0.47;;;16.90;54.70;;;;;;6255923;28;20581;-72
2021/05/06 12:17:21;;;;;;;0.90;0.60;;;16.60;54.00;;;;;;6254927;28;20236;-73
2021/05/06 12:20:24;;;;;;;1.53;0.70;;;16.60;53.50;;;;;;6254300;28;20231;-73
2021/05/06 12:23:26;;;;;;;1.20;0.50;;;16.60;53.10;;;;;;6255199;28;20223;-73
2021/05/06 12:26:28;;;;;;;1.37;0.63;;;16.80;52.30;;;;;;6237880;28;20600;-73
2021/05/06 12:29:30;;;;;;;0.87;0.50;;;16.90;52.60;;;;;;6254367;28;20241;-73
2021/05/06 12:32:33;;;;;;;0.80;0.67;;;17.50;52.40;;;;;;6231240;28;20238;-73
2021/05/06 12:35:55;;;;;;;1.30;0.80;;;18.10;52.40;;;;;;6197976;28;20232;-73
2021/05/06 12:39:07;;;;;;;0.83;0.70;;;18.90;50.90;;;;;;6206042;28;20310;-74
2021/05/06 12:42:10;;;;;;;2.63;0.60;;;19.10;51.30;;;;;;6206229;28;20205;-74
2021/05/06 12:45:15;;;;;;;0.90;0.70;;;19.60;49.40;;;;;;6172328;28;20209;-73
2021/05/06 12:48:38;;;;;;;2.33;0.73;;;20.10;49.10;;;;;;6189438;28;20231;-74
2021/05/06 12:51:40;;;;;;;0.80;0.50;;;19.60;48.40;;;;;;6181396;28;20229;-73
2021/05/06 12:54:42;;;;;;;0.80;0.67;;;19.40;50.20;;;;;;6181484;28;20231;-72
2021/05/06 12:57:45;;;;;;;2.57;0.83;;;19.20;49.30;;;;;;6148373;28;20312;-74
2021/05/06 13:00:56;;;;;;;0.90;0.60;;;18.90;50.40;;;;;;6181433;28;20251;-73
2021/05/06 13:04:02;;;;;;;3.40;0.63;;;18.90;50.60;;;;;;6180734;28;20647;-72
2021/05/06 13:07:04;;;;;;;0.93;0.60;;;18.80;50.10;;;;;;6162672;28;20323;-75
2021/05/06 13:10:06;;;;;;;1.20;0.90;;;19.10;49.90;;;;;;6187604;28;20237;-73
2021/05/06 13:13:11;;;;;;;1.87;0.80;;;19.60;48.50;;;;;;6182310;28;20323;-75
2021/05/06 13:16:16;;;;;;;1.53;0.80;;;19.80;48.20;;;;;;6163977;28;20326;-73
2021/05/06 13:19:20;;;;;;;1.83;0.50;;;20.00;47.70;;;;;;6187397;28;20236;-73
2021/05/06 13:22:23;;;;;;;1.17;0.60;;;19.70;47.60;;;;;;6206089;28;20327;-73
2021/05/06 13:25:39;;;;;;;1.33;0.80;;;19.30;48.10;;;;;;6188612;28;20236;-73
2021/05/06 13:28:44;;;;;;;1.23;0.87;;;18.90;50.00;;;;;;6189676;28;20702;-73
2021/05/06 13:31:48;;;;;;;2.03;0.80;;;18.50;49.50;;;;;;6193092;28;20389;-73
2021/05/06 13:34:54;;;;;;;2.33;0.80;;;18.30;49.80;;;;;;6186046;28;20228;-72
2021/05/06 13:37:57;;;;;;;1.13;0.70;;;18.20;49.70;;;;;;6204950;28;20327;-73
2021/05/06 13:40:59;;;;;;;0.87;0.63;;;18.40;49.90;;;;;;6210615;28;20224;-73
2021/05/06 13:44:03;;;;;;;1.13;0.70;;;18.60;49.30;;;;;;6211839;28;20251;-73
2021/05/06 13:47:06;;;;;;;1.67;0.63;;;18.50;49.50;;;;;;6212254;28;20294;-73
2021/05/06 13:50:09;;;;;;;1.80;0.97;;;18.40;49.80;;;;;;6217946;28;20224;-73
2021/05/06 13:53:11;;;;;;;1.70;0.83;;;17.90;50.20;;;;;;6187832;28;20237;-73
2021/05/06 13:56:13;;;;;;;1.67;0.80;;;17.80;51.10;;;;;;6205406;28;20228;-73
2021/05/06 13:59:15;;;;;;;2.10;0.80;;;18.00;51.10;;;;;;6205318;28;20769;-73
2021/05/06 14:02:19;;;;;;;1.57;0.93;;;18.50;49.90;;;;;;6188063;28;20363;-73
2021/05/06 14:05:22;;;;;;;0.97;0.73;;;18.90;49.30;;;;;;6205231;28;20239;-73
2021/05/06 14:08:25;;;;;;;1.57;0.60;;;19.40;48.90;;;;;;6204937;28;20235;-74
2021/05/06 14:11:27;;;;;;;1.63;0.77;;;19.80;49.10;;;;;;6208959;28;20675;-73
2021/05/06 14:14:37;;;;;;;1.50;0.80;;;20.20;47.60;;;;;;6196218;28;20370;-73
2021/05/06 14:17:38;;;;;;;1.87;0.90;;;20.60;46.70;;;;;;6215853;28;20259;-73
2021/05/06 14:20:42;;;;;;;2.00;0.73;;;21.20;46.40;;;;;;6188291;28;20290;-74
2021/05/06 14:23:45;;;;;;;3.53;0.70;;;21.70;45.30;;;;;;6208497;28;20282;-73
2021/05/06 14:26:50;;;;;;;1.40;0.80;;;22.20;43.90;;;;;;6208834;28;20221;-73
2021/05/06 14:29:52;;;;;;;3.63;1.00;;;22.60;42.90;;;;;;6192440;28;20248;-74
2021/05/06 14:32:53;;;;;;;1.53;0.77;;;23.00;42.60;;;;;;6213848;28;20317;-73
2021/05/06 14:35:55;;;;;;;1.43;0.80;;;22.80;42.40;;;;;;6216147;28;20236;-73
2021/05/06 14:39:00;;;;;;;0.93;0.70;;;22.50;42.80;;;;;;6233495;28;20579;-73
2021/05/06 14:42:02;;;;;;;1.67;0.83;;;22.20;43.20;;;;;;6232122;28;20262;-74
2021/05/06 14:45:05;;;;;;;1.47;0.70;;;21.80;43.30;;;;;;6234309;28;20291;-73
2021/05/06 14:48:10;;;;;;;0.70;0.60;;;21.50;43.40;;;;;;6232958;28;20212;-74
2021/05/06 14:51:12;;;;;;;1.80;0.90;;;21.40;43.50;;;;;;6212909;28;20318;-74
2021/05/06 14:54:13;;;;;;;0.63;0.47;;;21.80;42.60;;;;;;6208199;28;20203;-74
2021/05/06 14:57:15;;;;;;;1.37;0.70;;;22.60;42.10;;;;;;6207869;28;20319;-73
2021/05/06 15:00:21;;;;;;;1.40;0.70;;;23.10;40.50;;;;;;6220787;28;20554;-73
2021/05/06 15:03:23;;;;;;;1.10;0.70;;;23.40;40.70;;;;;;6233453;28;20224;-74
2021/05/06 15:06:25;;;;;;;0.53;0.50;;;23.50;39.30;;;;;;6214872;28;20631;-74
2021/05/06 15:09:27;;;;;;;0.77;0.50;;;23.70;39.70;;;;;;6231956;28;20242;-73
2021/05/06 15:12:28;;;;;;;0.90;0.50;;;23.80;39.50;;;;;;6231967;28;20310;-73
2021/05/06 15:15:30;;;;;;;2.67;0.80;;;23.70;39.40;;;;;;6214436;28;20281;-73
2021/05/06 15:18:32;;;;;;;2.63;0.63;;;23.70;39.10;;;;;;6215226;28;20316;-74
2021/05/06 15:21:34;;;;;;;0.53;0.40;;;23.50;39.10;;;;;;6192291;28;20370;-73
2021/05/06 15:24:36;;;;;;;2.30;0.70;;;23.50;39.10;;;;;;6207581;28;20225;-74
2021/05/06 15:27:41;;;;;;;1.40;0.60;;;23.50;39.00;;;;;;6207213;28;20245;-74
2021/05/06 15:30:45;;;;;;;0.93;0.50;;;23.20;39.40;;;;;;6195472;28;20231;-73
2021/05/06 15:33:47;;;;;;;1.50;0.90;;;22.70;39.30;;;;;;6215670;28;20417;-73
2021/05/06 15:36:49;;;;;;;1.37;0.80;;;21.20;40.30;;;;;;6214030;28;20602;-73
2021/05/06 15:39:51;;;;;;;0.73;0.60;;;19.70;43.10;;;;;;6231517;28;20309;-73
2021/05/06 15:42:53;;;;;;;0.90;0.57;;;18.10;45.40;;;;;;6215116;28;20322;-73
2021/05/06 15:45:56;;;;;;;0.70;0.70;;;17.70;46.30;;;;;;6231053;28;20688;-72
2021/05/06 15:49:00;;;;;;;1.03;0.73;;;18.30;45.10;;;;;;6229649;28;20240;-74
2021/05/06 15:52:12;;;;;;;2.77;1.03;;;19.00;44.40;;;;;;6190876;28;20248;-72
2021/05/06 15:55:15;;;;;;;1.43;0.80;;;19.30;43.60;;;;;;6189107;28;20326;-72
2021/05/06 15:58:19;;;;;;;0.87;0.70;;;19.40;43.60;;;;;;6207251;28;20322;-73
2021/05/06 16:01:21;;;;;;;1.67;0.90;;;19.10;44.10;;;;;;6189923;28;20230;-73
2021/05/06 16:04:34;;;;;;;1.33;0.67;;;18.90;44.60;;;;;;6206805;28;20238;-73
2021/05/06 16:07:36;;;;;;;1.33;0.80;;;18.70;45.00;;;;;;6207111;28;20739;-72
2021/05/06 16:10:38;;;;;;;3.20;0.93;;;18.00;45.40;;;;;;6206500;28;20370;-72
2021/05/06 16:13:39;;;;;;;3.40;0.90;;;17.20;46.90;;;;;;6189581;28;20298;-73
2021/05/06 16:16:41;;;;;;;1.83;0.90;;;16.20;48.20;;;;;;6188605;28;20256;-74
2021/05/06 16:19:44;;;;;;;1.33;0.87;;;15.60;49.60;;;;;;6190251;28;20240;-72
2021/05/06 16:22:46;;;;;;;1.87;0.63;;;15.20;50.60;;;;;;6188681;28;20277;-72
2021/05/06 16:25:48;;;;;;;0.50;0.50;;;15.00;51.30;;;;;;6207263;28;20243;-72
2021/05/06 16:28:50;;;;;;;2.63;0.80;;;14.90;51.10;;;;;;6191344;28;20232;-72
2021/05/06 16:31:52;;;;;;;3.77;0.87;;;14.70;51.80;;;;;;6206657;28;20381;-73
2021/05/06 16:34:54;;;;;;;3.47;0.90;;;14.60;51.90;;;;;;6216741;28;20239;-72
2021/05/06 16:38:02;;;;;;;0.93;0.63;;;14.50;52.10;;;;;;6212868;28;20234;-72
2021/05/06 16:41:09;;;;;;;2.53;0.80;;;14.40;52.30;;;;;;6229368;28;20226;-73
2021/05/06 16:44:29;;;;;;;1.13;0.60;;;14.20;52.70;;;;;;6229337;28;20271;-72
2021/05/06 16:47:32;;;;;;;2.80;1.07;;;14.10;53.40;;;;;;6212739;28;20231;-73
2021/05/06 16:50:34;;;;;;;1.40;0.70;;;14.00;53.50;;;;;;6189224;28;20326;-72
2021/05/06 16:53:36;;;;;;;2.37;1.10;;;13.80;53.70;;;;;;6206087;28;20249;-72
2021/05/06 16:56:58;;;;;;;2.03;0.73;;;13.80;54.00;;;;;;6188056;28;20382;-72
2021/05/06 17:00:04;;;;;;;2.47;1.03;;;13.70;54.60;;;;;;6189549;28;20306;-73
2021/05/06 17:03:29;;;;;;;1.63;0.87;;;13.60;54.50;;;;;;6207171;28;20698;-72
2021/05/06 17:06:55;;;;;;;1.67;0.80;;;13.40;55.30;;;;;;6175285;28;20254;-72
2021/05/06 17:10:19;;;;;;;2.17;0.90;;;13.30;55.70;;;;;;6205514;28;20374;-72
2021/05/06 17:13:22;;;;;;;1.60;0.80;;;13.20;56.10;;;;;;6187670;28;20238;-71
2021/05/06 17:16:38;;;;;;;1.03;0.90;;;13.20;56.20;;;;;;6205150;28;20272;-72
2021/05/06 17:19:39;;;;;;;2.13;0.80;;;13.10;56.40;;;;;;6196497;28;20236;-73
2021/05/06 17:22:44;;;;;;;2.70;1.00;;;13.00;56.50;;;;;;6231033;28;20235;-72
2021/05/06 17:25:46;;;;;;;1.70;0.93;;;13.00;57.20;;;;;;6212053;28;20220;-72
2021/05/06 17:28:48;;;;;;;2.77;0.80;;;12.90;57.40;;;;;;6249793;28;20228;-72
2021/05/06 17:31:50;;;;;;;1.10;1.00;;;12.90;58.30;;;;;;6239671;28;20237;-72
2021/05/06 17:34:52;;;;;;;2.27;1.13;;;12.70;58.50;;;;;;6212342;28;20649;-72
2021/05/06 17:37:54;;;;;;;1.87;1.03;;;12.70;59.40;;;;;;6213088;28;20227;-72
2021/05/06 17:40:56;;;;;;;2.30;1.00;;;12.60;59.60;;;;;;6211954;28;20239;-72
2021/05/06 17:43:58;;;;;;;3.13;1.10;;;12.40;60.20;;;;;;6212118;28;20234;-72
2021/05/06 17:47:03;;;;;;;2.47;1.33;;;12.30;61.00;;;;;;6230182;28;20232;-72
2021/05/06 17:50:08;;;;;;;4.37;1.00;;;12.30;62.60;;;;;;6228936;28;20242;-72
2021/05/06 17:53:10;;;;;;;1.50;1.20;;;12.20;63.50;;;;;;6217610;28;20228;-72
2021/05/06 17:56:11;;;;;;;2.43;1.33;;;12.00;64.60;;;;;;6234084;28;20268;-72
2021/05/06 17:59:14;;;;;;;2.37;1.20;;;11.90;65.30;;;;;;6200969;28;20266;-72
2021/05/06 18:02:16;;;;;;;1.90;1.47;;;11.80;66.40;;;;;;6233677;28;20239;-72
2021/05/06 18:05:19;;;;;;;1.30;1.10;;;11.70;67.20;;;;;;6216432;28;20262;-72
2021/05/06 18:08:24;;;;;;;3.27;1.37;;;11.60;68.00;;;;;;6233931;28;20228;-72
2021/05/06 18:11:33;;;;;;;1.37;0.90;;;11.60;69.30;;;;;;6216669;28;20313;-72
2021/05/06 18:14:36;;;;;;;3.13;1.30;;;11.50;70.10;;;;;;6233905;28;20362;-73
2021/05/06 18:17:37;;;;;;;1.97;1.33;;;11.40;71.60;;;;;;6216520;28;20700;-72
2021/05/06 18:20:39;;;;;;;2.03;1.30;;;11.30;72.20;;;;;;6232546;28;20224;-72
2021/05/06 18:23:41;;;;;;;2.70;1.13;;;11.20;73.30;;;;;;6216859;28;20306;-72
2021/05/06 18:26:43;;;;;;;1.63;1.27;;;11.10;74.10;;;;;;6232560;28;20277;-73
2021/05/06 18:29:47;;;;;;;1.80;0.97;;;11.10;76.20;;;;;;6233814;28;20322;-72
2021/05/06 18:32:49;;;;;;;1.87;1.30;;;11.00;76.50;;;;;;6255096;28;20325;-72
2021/05/06 18:35:51;;;;;;;1.27;1.00;;;11.00;77.40;;;;;;6257736;28;20340;-72
2021/05/06 18:38:53;;;;;;;1.90;1.13;;;10.90;78.30;;;;;;6254275;28;20588;-72
2021/05/06 18:41:55;;;;;;;3.17;1.50;;;10.90;79.60;;;;;;6233845;28;20230;-73
2021/05/06 18:44:58;;;;;;;1.57;0.97;;;10.80;81.20;;;;;;6233242;28;20572;-73
2021/05/06 18:48:00;;;;;;;2.17;1.37;;;10.80;82.50;;;;;;6232722;28;20285;-73
2021/05/06 18:51:02;;;;;;;4.30;1.33;;;10.80;82.70;;;;;;6233451;28;20239;-72
2021/05/06 18:54:06;;;;;;;1.93;1.23;;;10.70;84.00;;;;;;6232382;28;20215;-72
2021/05/06 18:57:09;;;;;;;3.07;1.20;;;10.70;84.60;;;;;;6214760;28;20250;-73
2021/05/06 19:00:12;;;;;;;2.30;1.63;;;10.70;85.60;;;;;;6231777;28;20294;-72
2021/05/06 19:03:14;;;;;;;1.70;1.20;;;10.60;86.20;;;;;;6214499;28;20210;-73
2021/05/06 19:06:16;;;;;;;2.03;1.40;;;10.60;87.20;;;;;;6216729;28;20748;-72
2021/05/06 19:09:18;;;;;;;2.43;1.77;;;10.60;88.10;;;;;;6239035;28;20231;-73
2021/05/06 19:12:20;;;;;;;2.90;1.70;;;10.50;89.20;;;;;;6200628;28;20342;-72
2021/05/06 19:15:23;;;;;;;2.63;1.47;;;10.50;90.00;;;;;;6236314;28;20321;-72
2021/05/06 19:18:28;;;;;;;2.57;1.40;;;10.40;90.50;;;;;;6231565;28;20737;-72
2021/05/06 19:21:30;;;;;;;1.63;1.40;;;10.40;90.90;;;;;;6231991;28;20232;-72
2021/05/06 19:24:32;;;;;;;2.20;1.27;;;10.30;91.40;;;;;;6232533;28;20223;-71
2021/05/06 19:27:34;;;;;;;2.30;1.50;;;10.20;92.00;;;;;;6213516;28;20767;-72
2021/05/06 19:30:35;;;;;;;1.70;1.33;;;10.20;92.30;;;;;;6231779;28;20238;-72